Time,TemperatureF,DewpointF,PressureIn,WindDirection,WindDirectionDegrees,WindSpeedMPH,WindSpeedGustMPH,Humidity,HourlyPrecipIn,Conditions,Clouds,dailyrainin,SoftwareType,DateUTC
2013-09-22 00:00:00,56.4,49.6,29.84,SW,225,0.0,0.0,78,0.00,,,0.00,WSDL version 430,2013-09-22 07:00:00,
2013-09-22 00:05:00,56.1,49.4,29.84,SW,225,0.0,0.0,79,0.00,,,0.00,WSDL version 430,2013-09-22 07:05:00,
2013-09-22 00:10:00,55.9,49.4,29.84,SW,225,0.0,0.0,78,0.00,,,0.00,WSDL version 430,2013-09-22 07:10:00,
2013-09-22 00:15:00,55.7,49.1,29.84,SW,225,0.0,0.0,79,0.00,,,0.00,WSDL version 430,2013-09-22 07:15:00,
2013-09-22 00:20:00,55.6,49.2,29.84,SW,225,0.0,0.0,79,0.00,,,0.00,WSDL version 430,2013-09-22 07:20:00,
2013-09-22 00:25:00,55.6,49.2,29.84,SW,225,0.0,0.0,79,0.00,,,0.00,WSDL version 430,2013-09-22 07:25:00,
2013-09-22 00:30:00,55.5,49.1,29.84,SW,225,0.0,0.0,79,0.00,,,0.00,WSDL version 430,2013-09-22 07:30:00,
2013-09-22 00:35:00,55.4,49.0,29.84,SW,225,0.0,0.0,79,0.00,,,0.00,WSDL version 430,2013-09-22 07:35:00,
2013-09-22 00:40:00,55.4,49.2,29.83,SW,225,0.0,0.0,80,0.00,,,0.00,WSDL version 430,2013-09-22 07:40:00,
2013-09-22 00:45:00,55.7,49.3,29.83,SW,225,0.0,0.0,78,0.00,,,0.00,WSDL version 430,2013-09-22 07:45:00,
2013-09-22 00:50:00,55.9,49.2,29.83,SW,225,0.0,0.0,78,0.00,,,0.00,WSDL version 430,2013-09-22 07:50:00,
2013-09-22 00:55:00,55.9,49.2,29.84,SW,225,0.0,0.0,78,0.00,,,0.00,WSDL version 430,2013-09-22 07:55:00,
2013-09-22 01:00:00,56.0,49.0,29.84,SW,225,0.0,0.0,77,0.00,,,0.00,WSDL version 430,2013-09-22 08:00:00,
2013-09-22 01:05:00,56.1,49.0,29.84,SW,225,0.0,0.0,77,0.00,,,0.00,WSDL version 430,2013-09-22 08:05:00,
2013-09-22 01:10:00,55.9,48.8,29.84,SW,225,0.0,0.0,77,0.00,,,0.00,WSDL version 430,2013-09-22 08:10:00,
2013-09-22 01:15:00,55.9,48.8,29.84,SW,225,0.0,0.0,77,0.00,,,0.00,WSDL version 430,2013-09-22 08:15:00,
2013-09-22 01:20:00,55.7,48.6,29.84,SW,225,0.0,0.0,77,0.00,,,0.00,WSDL version 430,2013-09-22 08:20:00,
2013-09-22 01:25:00,55.4,48.5,29.85,SW,225,0.0,0.0,78,0.00,,,0.00,WSDL version 430,2013-09-22 08:25:00,
2013-09-22 01:30:00,55.4,49.0,29.85,SW,225,0.0,0.0,80,0.00,,,0.00,WSDL version 430,2013-09-22 08:30:00,
2013-09-22 01:35:00,55.2,49.2,29.85,SW,225,0.0,0.0,80,0.00,,,0.00,WSDL version 430,2013-09-22 08:35:00,
2013-09-22 01:40:00,55.2,49.4,29.86,SW,225,0.0,0.0,81,0.00,,,0.00,WSDL version 430,2013-09-22 08:40:00,
2013-09-22 01:45:00,55.0,49.4,29.86,SW,225,0.0,0.0,81,0.00,,,0.00,WSDL version 430,2013-09-22 08:45:00,
2013-09-22 01:50:00,55.0,49.4,29.86,SW,225,0.0,0.0,81,0.00,,,0.00,WSDL version 430,2013-09-22 08:50:00,
2013-09-22 01:55:00,55.0,49.4,29.86,SW,225,0.0,0.0,81,0.00,,,0.00,WSDL version 430,2013-09-22 08:55:00,
2013-09-22 02:00:00,55.0,49.4,29.86,SW,225,0.0,0.0,81,0.00,,,0.00,WSDL version 430,2013-09-22 09:00:00,
2013-09-22 02:10:00,55.2,49.5,29.86,SW,225,0.0,0.0,81,0.00,,,0.00,WSDL version 430,2013-09-22 09:10:00,
2013-09-22 02:15:00,55.2,49.9,29.86,SW,225,0.0,0.0,82,0.00,,,0.00,WSDL version 430,2013-09-22 09:15:00,
2013-09-22 02:20:00,55.2,49.9,29.87,SW,225,0.0,0.0,82,0.00,,,0.00,WSDL version 430,2013-09-22 09:20:00,
2013-09-22 02:25:00,55.2,49.9,29.87,SW,225,0.0,0.0,82,0.00,,,0.00,WSDL version 430,2013-09-22 09:25:00,
2013-09-22 02:30:00,55.1,49.8,29.87,SW,225,0.0,0.0,82,0.00,,,0.00,WSDL version 430,2013-09-22 09:30:00,
2013-09-22 02:35:00,55.0,49.7,29.87,SW,225,0.0,0.0,82,0.00,,,0.00,WSDL version 430,2013-09-22 09:35:00,
2013-09-22 02:40:00,54.8,49.5,29.86,SW,225,0.0,0.0,82,0.00,,,0.00,WSDL version 430,2013-09-22 09:40:00,
2013-09-22 02:45:00,54.7,49.4,29.86,SW,225,0.0,0.0,82,0.00,,,0.00,WSDL version 430,2013-09-22 09:45:00,
2013-09-22 02:50:00,54.5,49.2,29.86,SW,225,0.0,0.0,82,0.00,,,0.00,WSDL version 430,2013-09-22 09:50:00,
2013-09-22 02:55:00,54.4,49.1,29.86,SW,225,0.0,0.0,82,0.00,,,0.00,WSDL version 430,2013-09-22 09:55:00,
2013-09-22 03:05:00,54.0,48.7,29.86,SW,225,0.0,0.0,82,0.00,,,0.00,WSDL version 430,2013-09-22 10:05:00,
2013-09-22 03:10:00,53.8,48.5,29.86,SW,225,0.0,0.0,82,0.00,,,0.00,WSDL version 430,2013-09-22 10:10:00,
2013-09-22 03:15:00,53.6,48.3,29.86,SW,225,0.0,0.0,83,0.00,,,0.00,WSDL version 430,2013-09-22 10:15:00,
2013-09-22 03:20:00,53.4,48.5,29.86,SW,225,0.0,0.0,83,0.00,,,0.00,WSDL version 430,2013-09-22 10:20:00,
2013-09-22 03:25:00,53.2,48.2,29.86,SW,225,0.0,0.0,83,0.00,,,0.00,WSDL version 430,2013-09-22 10:25:00,
2013-09-22 03:30:00,53.0,48.2,29.86,SW,225,0.0,0.0,84,0.00,,,0.00,WSDL version 430,2013-09-22 10:30:00,
2013-09-22 03:35:00,52.7,47.8,29.86,SW,225,0.0,0.0,83,0.00,,,0.00,WSDL version 430,2013-09-22 10:35:00,
2013-09-22 03:40:00,52.7,48.0,29.86,SW,225,0.0,0.0,84,0.00,,,0.00,WSDL version 430,2013-09-22 10:40:00,
2013-09-22 03:45:00,52.7,48.4,29.87,SW,225,0.0,0.0,86,0.00,,,0.00,WSDL version 430,2013-09-22 10:45:00,
2013-09-22 03:50:00,52.7,48.5,29.86,SW,225,0.0,0.0,86,0.00,,,0.00,WSDL version 430,2013-09-22 10:50:00,
2013-09-22 03:59:00,52.4,48.2,29.86,SW,225,0.0,0.0,86,0.00,,,0.00,WSDL version 430,2013-09-22 10:59:00,
2013-09-22 04:04:00,52.3,48.4,29.86,SW,225,0.0,0.0,87,0.00,,,0.00,WSDL version 430,2013-09-22 11:04:00,
2013-09-22 04:09:00,52.3,48.7,29.87,SW,225,0.0,0.0,88,0.00,,,0.00,WSDL version 430,2013-09-22 11:09:00,
2013-09-22 04:14:00,52.2,49.0,29.87,SW,225,0.0,0.0,89,0.00,,,0.00,WSDL version 430,2013-09-22 11:14:00,
2013-09-22 04:19:00,52.1,49.0,29.87,SW,225,0.0,0.0,89,0.00,,,0.00,WSDL version 430,2013-09-22 11:19:00,
2013-09-22 04:24:00,51.9,48.4,29.87,SW,225,0.0,0.0,88,0.00,,,0.00,WSDL version 430,2013-09-22 11:24:00,
2013-09-22 04:29:00,51.8,48.3,29.87,SW,225,0.0,0.0,89,0.00,,,0.00,WSDL version 430,2013-09-22 11:29:00,
2013-09-22 04:34:00,51.6,48.5,29.87,SW,225,0.0,0.0,89,0.00,,,0.00,WSDL version 430,2013-09-22 11:34:00,
2013-09-22 04:39:00,51.5,48.3,29.87,SW,225,0.0,0.0,89,0.00,,,0.00,WSDL version 430,2013-09-22 11:39:00,
2013-09-22 04:44:00,51.4,48.3,29.87,SW,225,0.0,0.0,89,0.00,,,0.00,WSDL version 430,2013-09-22 11:44:00,
2013-09-22 04:49:00,51.6,48.4,29.87,SW,225,0.0,0.0,89,0.00,,,0.00,WSDL version 430,2013-09-22 11:49:00,
2013-09-22 04:54:00,51.5,48.7,29.87,SW,225,0.0,0.0,90,0.00,,,0.00,WSDL version 430,2013-09-22 11:54:00,
2013-09-22 04:59:00,51.4,48.6,29.87,SW,225,0.0,0.0,90,0.00,,,0.00,WSDL version 430,2013-09-22 11:59:00,
2013-09-22 05:04:00,51.4,48.8,29.87,SW,225,0.0,0.0,91,0.00,,,0.00,WSDL version 430,2013-09-22 12:04:00,
2013-09-22 05:09:00,51.4,48.9,29.87,SW,225,0.0,0.0,91,0.00,,,0.00,WSDL version 430,2013-09-22 12:09:00,
2013-09-22 05:14:00,51.2,48.7,29.87,SW,225,0.0,0.0,91,0.00,,,0.00,WSDL version 430,2013-09-22 12:14:00,
2013-09-22 05:19:00,51.1,48.6,29.87,SW,225,0.0,0.0,91,0.00,,,0.00,WSDL version 430,2013-09-22 12:19:00,
2013-09-22 05:24:00,51.2,48.8,29.87,SW,225,0.0,0.0,92,0.00,,,0.00,WSDL version 430,2013-09-22 12:24:00,
2013-09-22 05:29:00,51.3,49.1,29.87,SW,225,0.0,0.0,92,0.00,,,0.00,WSDL version 430,2013-09-22 12:29:00,
2013-09-22 05:34:00,51.1,48.9,29.88,SW,225,0.0,0.0,91,0.00,,,0.00,WSDL version 430,2013-09-22 12:34:00,
2013-09-22 05:39:00,50.9,48.4,29.87,SW,225,0.0,0.0,91,0.00,,,0.00,WSDL version 430,2013-09-22 12:39:00,
2013-09-22 05:44:00,50.7,48.2,29.87,SW,225,0.0,0.0,91,0.00,,,0.00,WSDL version 430,2013-09-22 12:44:00,
2013-09-22 05:49:00,50.6,48.1,29.87,SW,225,0.0,0.0,91,0.00,,,0.00,WSDL version 430,2013-09-22 12:49:00,
2013-09-22 05:54:00,50.5,48.4,29.87,SW,225,0.0,0.0,92,0.00,,,0.00,WSDL version 430,2013-09-22 12:54:00,
2013-09-22 05:59:00,50.4,48.3,29.87,SW,225,0.0,0.0,92,0.00,,,0.00,WSDL version 430,2013-09-22 12:59:00,
2013-09-22 06:04:00,50.4,48.2,29.88,SW,225,0.0,0.0,92,0.00,,,0.00,WSDL version 430,2013-09-22 13:04:00,
2013-09-22 06:09:00,50.4,48.3,29.88,SW,225,0.0,0.0,92,0.00,,,0.00,WSDL version 430,2013-09-22 13:09:00,
2013-09-22 06:14:00,50.5,48.4,29.88,SW,225,0.0,0.0,92,0.00,,,0.00,WSDL version 430,2013-09-22 13:14:00,
2013-09-22 06:19:00,50.5,48.5,29.88,SW,225,0.0,0.0,93,0.00,,,0.00,WSDL version 430,2013-09-22 13:19:00,
2013-09-22 06:24:00,50.5,48.7,29.89,SW,225,0.0,0.0,93,0.00,,,0.00,WSDL version 430,2013-09-22 13:24:00,
2013-09-22 06:29:00,50.4,48.6,29.88,SW,225,0.0,0.0,93,0.00,,,0.00,WSDL version 430,2013-09-22 13:29:00,
2013-09-22 06:34:00,50.4,48.6,29.88,SW,225,0.0,0.0,94,0.00,,,0.00,WSDL version 430,2013-09-22 13:34:00,
2013-09-22 06:39:00,50.4,48.8,29.88,SW,225,0.0,0.0,94,0.00,,,0.00,WSDL version 430,2013-09-22 13:39:00,
2013-09-22 06:44:00,50.4,48.8,29.88,SW,225,0.0,0.0,94,0.00,,,0.00,WSDL version 430,2013-09-22 13:44:00,
2013-09-22 06:49:00,50.4,49.0,29.89,SW,225,0.0,0.0,96,0.00,,,0.00,WSDL version 430,2013-09-22 13:49:00,
2013-09-22 06:54:00,50.5,49.3,29.89,SW,225,0.0,0.0,96,0.00,,,0.00,WSDL version 430,2013-09-22 13:54:00,
2013-09-22 06:59:00,50.4,49.2,29.89,SW,225,0.0,0.0,96,0.00,,,0.00,WSDL version 430,2013-09-22 13:59:00,
2013-09-22 07:04:00,50.3,48.8,29.90,SW,225,0.0,0.0,94,0.00,,,0.00,WSDL version 430,2013-09-22 14:04:00,
2013-09-22 07:09:00,50.4,48.8,29.90,SW,225,0.0,0.0,94,0.00,,,0.00,WSDL version 430,2013-09-22 14:09:00,
2013-09-22 07:14:00,50.4,48.9,29.90,SW,225,0.0,0.0,94,0.00,,,0.00,WSDL version 430,2013-09-22 14:14:00,
2013-09-22 07:19:00,50.7,49.2,29.90,SW,225,0.0,0.0,96,0.00,,,0.00,WSDL version 430,2013-09-22 14:19:00,
2013-09-22 07:24:00,51.3,50.1,29.90,SW,225,0.0,0.0,96,0.00,,,0.00,WSDL version 430,2013-09-22 14:24:00,
2013-09-22 07:29:00,51.5,50.6,29.90,SW,225,0.0,0.0,97,0.00,,,0.00,WSDL version 430,2013-09-22 14:29:00,
2013-09-22 07:34:00,51.4,50.5,29.90,SW,225,0.0,0.0,96,0.00,,,0.00,WSDL version 430,2013-09-22 14:34:00,
2013-09-22 07:39:00,51.4,50.2,29.90,SW,225,0.0,0.0,96,0.00,,,0.00,WSDL version 430,2013-09-22 14:39:00,
2013-09-22 07:44:00,51.6,50.4,29.90,SW,225,0.0,0.0,96,0.00,,,0.00,WSDL version 430,2013-09-22 14:44:00,
2013-09-22 07:49:00,51.8,50.4,29.90,SW,225,0.0,0.0,94,0.00,,,0.00,WSDL version 430,2013-09-22 14:49:00,
2013-09-22 07:54:00,52.2,50.9,29.90,SW,225,0.0,0.0,96,0.00,,,0.00,WSDL version 430,2013-09-22 14:54:00,
2013-09-22 07:59:00,53.3,52.1,29.91,SW,225,0.0,0.0,96,0.00,,,0.00,WSDL version 430,2013-09-22 14:59:00,
2013-09-22 08:04:00,54.8,53.7,29.91,SW,225,0.0,0.0,96,0.00,,,0.00,WSDL version 430,2013-09-22 15:04:00,
2013-09-22 08:09:00,56.3,55.0,29.91,SW,225,0.0,0.0,95,0.00,,,0.00,WSDL version 430,2013-09-22 15:09:00,
2013-09-22 08:14:00,57.3,55.6,29.91,SW,225,0.0,0.0,93,0.00,,,0.00,WSDL version 430,2013-09-22 15:14:00,
2013-09-22 08:19:00,58.2,55.6,29.91,SW,225,0.0,0.0,89,0.00,,,0.00,WSDL version 430,2013-09-22 15:19:00,
2013-09-22 08:24:00,59.3,54.4,29.91,SW,225,0.0,0.0,82,0.00,,,0.00,WSDL version 430,2013-09-22 15:24:00,
2013-09-22 08:29:00,60.2,53.5,29.91,SW,225,0.0,0.0,77,0.00,,,0.00,WSDL version 430,2013-09-22 15:29:00,
2013-09-22 08:34:00,61.0,52.6,29.91,SW,225,0.0,0.0,71,0.00,,,0.00,WSDL version 430,2013-09-22 15:34:00,
2013-09-22 08:39:00,61.8,52.0,29.91,SW,225,0.0,0.0,69,0.00,,,0.00,WSDL version 430,2013-09-22 15:39:00,
2013-09-22 08:44:00,62.1,50.9,29.91,SW,225,0.0,0.0,68,0.00,,,0.00,WSDL version 430,2013-09-22 15:44:00,
2013-09-22 08:49:00,62.2,48.8,29.91,SW,225,0.0,0.0,60,0.00,,,0.00,WSDL version 430,2013-09-22 15:49:00,
2013-09-22 08:54:00,62.3,48.3,29.92,SW,225,0.0,0.0,59,0.00,,,0.00,WSDL version 430,2013-09-22 15:54:00,
2013-09-22 08:59:00,62.2,47.0,29.92,SW,225,0.0,0.0,58,0.00,,,0.00,WSDL version 430,2013-09-22 15:59:00,
2013-09-22 09:04:00,61.8,46.8,29.92,SW,225,0.0,0.0,57,0.00,,,0.00,WSDL version 430,2013-09-22 16:04:00,
2013-09-22 09:09:00,61.5,46.3,29.92,SW,225,0.0,0.0,58,0.00,,,0.00,WSDL version 430,2013-09-22 16:09:00,
2013-09-22 09:14:00,61.9,46.2,29.91,SW,225,0.0,0.0,56,0.00,,,0.00,WSDL version 430,2013-09-22 16:14:00,
2013-09-22 09:19:00,62.5,45.9,29.91,SW,225,0.0,0.0,53,0.00,,,0.00,WSDL version 430,2013-09-22 16:19:00,
2013-09-22 09:24:00,63.2,45.2,29.91,SW,225,0.0,0.0,52,0.00,,,0.00,WSDL version 430,2013-09-22 16:24:00,
2013-09-22 09:29:00,63.2,45.2,29.91,SW,225,0.0,0.0,53,0.00,,,0.00,WSDL version 430,2013-09-22 16:29:00,
2013-09-22 09:34:00,63.5,45.3,29.92,SW,225,0.0,0.0,50,0.00,,,0.00,WSDL version 430,2013-09-22 16:34:00,
2013-09-22 09:39:00,63.2,44.8,29.92,SW,225,0.0,0.0,52,0.00,,,0.00,WSDL version 430,2013-09-22 16:39:00,
2013-09-22 09:44:00,63.4,45.1,29.93,SW,225,0.0,0.0,51,0.00,,,0.00,WSDL version 430,2013-09-22 16:44:00,
2013-09-22 09:49:00,64.0,45.0,29.93,SW,225,0.0,0.0,49,0.00,,,0.00,WSDL version 430,2013-09-22 16:49:00,
2013-09-22 09:54:00,63.9,44.2,29.93,SW,225,0.0,0.0,48,0.00,,,0.00,WSDL version 430,2013-09-22 16:54:00,
2013-09-22 09:59:00,64.2,45.0,29.93,SW,225,0.0,0.0,50,0.00,,,0.00,WSDL version 430,2013-09-22 16:59:00,
2013-09-22 10:04:00,64.6,45.9,29.93,SW,225,0.0,0.0,51,0.00,,,0.00,WSDL version 430,2013-09-22 17:04:00,
2013-09-22 10:09:00,64.9,45.4,29.93,SW,225,0.0,0.0,47,0.00,,,0.00,WSDL version 430,2013-09-22 17:09:00,
2013-09-22 10:14:00,64.9,45.6,29.93,SW,225,0.0,0.0,49,0.00,,,0.00,WSDL version 430,2013-09-22 17:14:00,
2013-09-22 10:19:00,65.0,45.5,29.93,SW,225,0.0,0.0,50,0.00,,,0.00,WSDL version 430,2013-09-22 17:19:00,
2013-09-22 10:24:00,65.5,46.2,29.93,SW,225,0.0,0.0,48,0.00,,,0.00,WSDL version 430,2013-09-22 17:24:00,
2013-09-22 10:29:00,65.3,45.3,29.93,SW,225,0.0,0.0,49,0.00,,,0.00,WSDL version 430,2013-09-22 17:29:00,
2013-09-22 10:34:00,65.3,45.3,29.94,SW,225,0.0,0.0,48,0.00,,,0.00,WSDL version 430,2013-09-22 17:34:00,
2013-09-22 10:39:00,65.2,45.0,29.93,SW,225,0.0,0.0,49,0.00,,,0.00,WSDL version 430,2013-09-22 17:39:00,
2013-09-22 10:44:00,65.6,45.8,29.94,SW,225,0.0,0.0,50,0.00,,,0.00,WSDL version 430,2013-09-22 17:44:00,
2013-09-22 10:49:00,65.6,45.1,29.93,SW,225,0.0,0.0,47,0.00,,,0.00,WSDL version 430,2013-09-22 17:49:00,
2013-09-22 10:54:00,65.6,45.2,29.93,SW,225,0.0,0.0,47,0.00,,,0.00,WSDL version 430,2013-09-22 17:54:00,
2013-09-22 10:59:00,65.7,45.4,29.93,SW,225,0.0,0.0,48,0.00,,,0.00,WSDL version 430,2013-09-22 17:59:00,
2013-09-22 11:04:00,65.8,45.4,29.93,SW,225,0.0,0.0,48,0.00,,,0.00,WSDL version 430,2013-09-22 18:04:00,
2013-09-22 11:09:00,65.9,45.8,29.93,SW,225,0.0,0.0,48,0.00,,,0.00,WSDL version 430,2013-09-22 18:09:00,
2013-09-22 11:14:00,66.2,45.9,29.93,SW,225,0.0,0.0,48,0.00,,,0.00,WSDL version 430,2013-09-22 18:14:00,
2013-09-22 11:19:00,66.5,46.1,29.93,SW,225,0.0,0.0,47,0.00,,,0.00,WSDL version 430,2013-09-22 18:19:00,
2013-09-22 11:24:00,66.6,45.6,29.93,SW,225,0.0,0.0,47,0.00,,,0.00,WSDL version 430,2013-09-22 18:24:00,
2013-09-22 11:29:00,66.7,46.3,29.93,SW,225,0.0,0.0,47,0.00,,,0.00,WSDL version 430,2013-09-22 18:29:00,
2013-09-22 11:34:00,67.1,46.3,29.93,SW,225,0.0,0.0,47,0.00,,,0.00,WSDL version 430,2013-09-22 18:34:00,
2013-09-22 11:39:00,67.6,46.2,29.93,SW,225,0.0,0.0,45,0.00,,,0.00,WSDL version 430,2013-09-22 18:39:00,
2013-09-22 11:44:00,67.3,46.2,29.93,SW,225,0.0,0.0,47,0.00,,,0.00,WSDL version 430,2013-09-22 18:44:00,
2013-09-22 11:49:00,67.5,45.6,29.93,SW,225,0.0,0.0,45,0.00,,,0.00,WSDL version 430,2013-09-22 18:49:00,
2013-09-22 11:56:00,68.1,45.6,29.93,SW,225,0.0,0.0,45,0.00,,,0.00,WSDL version 430,2013-09-22 18:56:00,
2013-09-22 12:01:00,67.9,45.1,29.93,SW,225,0.0,0.0,44,0.00,,,0.00,WSDL version 430,2013-09-22 19:01:00,
2013-09-22 12:06:00,68.1,44.8,29.93,SW,225,0.0,0.0,43,0.00,,,0.00,WSDL version 430,2013-09-22 19:06:00,
2013-09-22 12:11:00,68.0,44.3,29.92,SW,225,0.0,0.0,43,0.00,,,0.00,WSDL version 430,2013-09-22 19:11:00,
2013-09-22 12:16:00,68.0,44.4,29.92,SW,225,0.0,0.0,41,0.00,,,0.00,WSDL version 430,2013-09-22 19:16:00,
2013-09-22 12:21:00,67.8,44.2,29.92,SW,225,0.0,0.0,42,0.00,,,0.00,WSDL version 430,2013-09-22 19:21:00,
2013-09-22 12:26:00,68.1,44.7,29.92,SW,225,0.0,0.0,43,0.00,,,0.00,WSDL version 430,2013-09-22 19:26:00,
2013-09-22 12:31:00,68.6,44.5,29.92,SW,225,0.0,0.0,43,0.00,,,0.00,WSDL version 430,2013-09-22 19:31:00,
2013-09-22 12:36:00,68.8,43.8,29.92,SW,225,0.0,0.0,39,0.00,,,0.00,WSDL version 430,2013-09-22 19:36:00,
2013-09-22 12:41:00,68.7,42.8,29.91,SW,225,0.0,0.0,39,0.00,,,0.00,WSDL version 430,2013-09-22 19:41:00,
2013-09-22 12:46:00,69.1,44.2,29.91,SW,225,0.0,0.0,42,0.00,,,0.00,WSDL version 430,2013-09-22 19:46:00,
2013-09-22 12:51:00,69.2,42.9,29.91,SW,225,0.0,0.0,39,0.00,,,0.00,WSDL version 430,2013-09-22 19:51:00,
2013-09-22 12:56:00,69.3,43.1,29.91,SW,225,0.0,0.0,37,0.00,,,0.00,WSDL version 430,2013-09-22 19:56:00,
2013-09-22 13:01:00,69.3,43.0,29.91,SW,225,0.0,0.0,39,0.00,,,0.00,WSDL version 430,2013-09-22 20:01:00,
2013-09-22 13:06:00,69.8,43.9,29.91,SW,225,0.0,0.0,39,0.00,,,0.00,WSDL version 430,2013-09-22 20:06:00,
2013-09-22 13:11:00,69.9,43.9,29.90,SW,225,0.0,0.0,39,0.00,,,0.00,WSDL version 430,2013-09-22 20:11:00,
2013-09-22 13:16:00,70.2,44.3,29.91,SW,225,0.0,0.0,40,0.00,,,0.00,WSDL version 430,2013-09-22 20:16:00,
2013-09-22 13:21:00,70.4,43.7,29.90,SW,225,0.0,0.0,36,0.00,,,0.00,WSDL version 430,2013-09-22 20:21:00,
2013-09-22 13:26:00,70.5,43.0,29.90,SW,225,0.0,0.0,37,0.00,,,0.00,WSDL version 430,2013-09-22 20:26:00,
2013-09-22 13:31:00,70.9,43.9,29.91,SW,225,0.0,0.0,40,0.00,,,0.00,WSDL version 430,2013-09-22 20:31:00,
2013-09-22 13:36:00,70.8,44.1,29.91,SW,225,0.0,0.0,40,0.00,,,0.00,WSDL version 430,2013-09-22 20:36:00,
2013-09-22 13:41:00,71.0,43.4,29.91,SW,225,0.0,0.0,36,0.00,,,0.00,WSDL version 430,2013-09-22 20:41:00,
2013-09-22 13:46:00,70.6,42.5,29.91,SW,225,0.0,0.0,36,0.00,,,0.00,WSDL version 430,2013-09-22 20:46:00,
2013-09-22 13:51:00,70.6,42.4,29.91,SW,225,0.0,0.0,36,0.00,,,0.00,WSDL version 430,2013-09-22 20:51:00,
2013-09-22 13:56:00,70.8,42.3,29.91,SW,225,0.0,0.0,36,0.00,,,0.00,WSDL version 430,2013-09-22 20:56:00,
2013-09-22 14:01:00,71.4,43.3,29.90,SW,225,0.0,0.0,36,0.00,,,0.00,WSDL version 430,2013-09-22 21:01:00,
2013-09-22 14:06:00,71.4,42.3,29.90,SW,225,0.0,0.0,34,0.00,,,0.00,WSDL version 430,2013-09-22 21:06:00,
2013-09-22 14:11:00,71.1,41.2,29.90,SW,225,0.0,0.0,34,0.00,,,0.00,WSDL version 430,2013-09-22 21:11:00,
2013-09-22 14:16:00,70.8,40.8,29.91,SW,225,0.0,0.0,34,0.00,,,0.00,WSDL version 430,2013-09-22 21:16:00,
2013-09-22 14:21:00,70.8,42.0,29.90,SW,225,0.0,0.0,36,0.00,,,0.00,WSDL version 430,2013-09-22 21:21:00,
2013-09-22 14:26:00,70.8,42.1,29.91,SW,225,0.0,0.0,35,0.00,,,0.00,WSDL version 430,2013-09-22 21:26:00,
2013-09-22 14:31:00,71.2,41.9,29.91,SW,225,0.0,0.0,34,0.00,,,0.00,WSDL version 430,2013-09-22 21:31:00,
2013-09-22 14:36:00,71.2,42.1,29.90,SW,225,0.0,0.0,35,0.00,,,0.00,WSDL version 430,2013-09-22 21:36:00,
2013-09-22 14:41:00,71.2,42.4,29.90,SW,225,0.0,0.0,35,0.00,,,0.00,WSDL version 430,2013-09-22 21:41:00,
2013-09-22 14:46:00,71.1,41.5,29.90,SW,225,0.0,0.0,33,0.00,,,0.00,WSDL version 430,2013-09-22 21:46:00,
2013-09-22 14:51:00,71.3,41.0,29.90,SW,225,0.0,0.0,33,0.00,,,0.00,WSDL version 430,2013-09-22 21:51:00,
2013-09-22 14:56:00,71.3,40.9,29.90,SW,225,0.0,0.0,34,0.00,,,0.00,WSDL version 430,2013-09-22 21:56:00,
2013-09-22 15:01:00,71.3,41.6,29.90,SW,225,0.0,0.0,34,0.00,,,0.00,WSDL version 430,2013-09-22 22:01:00,
2013-09-22 15:06:00,71.5,41.8,29.90,SW,225,0.0,0.0,34,0.00,,,0.00,WSDL version 430,2013-09-22 22:06:00,
2013-09-22 15:11:00,71.3,41.4,29.90,SW,225,0.0,0.0,34,0.00,,,0.00,WSDL version 430,2013-09-22 22:11:00,
2013-09-22 15:16:00,71.2,41.5,29.90,SW,225,0.0,0.0,35,0.00,,,0.00,WSDL version 430,2013-09-22 22:16:00,
2013-09-22 15:21:00,71.2,41.3,29.90,SW,225,0.0,0.0,34,0.00,,,0.00,WSDL version 430,2013-09-22 22:21:00,
2013-09-22 15:26:00,71.2,41.2,29.90,SW,225,0.0,0.0,34,0.00,,,0.00,WSDL version 430,2013-09-22 22:26:00,
2013-09-22 15:31:00,71.4,41.9,29.90,SW,225,0.0,0.0,35,0.00,,,0.00,WSDL version 430,2013-09-22 22:31:00,
2013-09-22 15:36:00,71.4,41.8,29.90,SW,225,0.0,0.0,34,0.00,,,0.00,WSDL version 430,2013-09-22 22:36:00,
2013-09-22 15:41:00,71.2,41.5,29.90,SW,225,0.0,0.0,34,0.00,,,0.00,WSDL version 430,2013-09-22 22:41:00,
2013-09-22 15:46:00,71.2,41.4,29.90,SW,225,0.0,0.0,34,0.00,,,0.00,WSDL version 430,2013-09-22 22:46:00,
2013-09-22 15:51:00,71.2,41.5,29.90,SW,225,0.0,0.0,34,0.00,,,0.00,WSDL version 430,2013-09-22 22:51:00,
2013-09-22 15:56:00,71.4,41.2,29.90,SW,225,0.0,0.0,33,0.00,,,0.00,WSDL version 430,2013-09-22 22:56:00,
2013-09-22 16:01:00,71.4,40.9,29.90,SW,225,0.0,0.0,33,0.00,,,0.00,WSDL version 430,2013-09-22 23:01:00,
2013-09-22 16:06:00,71.4,41.2,29.90,SW,225,0.0,0.0,34,0.00,,,0.00,WSDL version 430,2013-09-22 23:06:00,
2013-09-22 16:11:00,71.6,41.2,29.90,SW,225,0.0,0.0,33,0.00,,,0.00,WSDL version 430,2013-09-22 23:11:00,
2013-09-22 16:16:00,71.6,41.0,29.90,SW,225,0.0,0.0,33,0.00,,,0.00,WSDL version 430,2013-09-22 23:16:00,
2013-09-22 16:21:00,71.5,40.9,29.90,SW,225,0.0,0.0,33,0.00,,,0.00,WSDL version 430,2013-09-22 23:21:00,
2013-09-22 16:26:00,71.7,41.1,29.89,SW,225,0.0,0.0,33,0.00,,,0.00,WSDL version 430,2013-09-22 23:26:00,
2013-09-22 16:31:00,71.7,41.2,29.90,SW,225,0.0,0.0,33,0.00,,,0.00,WSDL version 430,2013-09-22 23:31:00,
2013-09-22 16:36:00,71.7,41.1,29.90,SW,225,0.0,0.0,33,0.00,,,0.00,WSDL version 430,2013-09-22 23:36:00,
2013-09-22 16:41:00,71.5,40.9,29.90,SW,225,0.0,0.0,33,0.00,,,0.00,WSDL version 430,2013-09-22 23:41:00,
2013-09-22 16:46:00,71.4,40.8,29.90,SW,225,0.0,0.0,33,0.00,,,0.00,WSDL version 430,2013-09-22 23:46:00,
2013-09-22 16:51:00,71.2,40.7,29.90,SW,225,0.0,0.0,33,0.00,,,0.00,WSDL version 430,2013-09-22 23:51:00,
2013-09-22 16:56:00,71.3,40.8,29.90,SW,225,0.0,0.0,33,0.00,,,0.00,WSDL version 430,2013-09-22 23:56:00,
2013-09-22 17:01:00,71.2,40.8,29.90,SW,225,0.0,0.0,33,0.00,,,0.00,WSDL version 430,2013-09-23 00:01:00,
2013-09-22 17:06:00,71.2,40.7,29.90,SW,225,0.0,0.0,33,0.00,,,0.00,WSDL version 430,2013-09-23 00:06:00,
2013-09-22 17:11:00,71.1,40.5,29.90,SW,225,0.0,0.0,33,0.00,,,0.00,WSDL version 430,2013-09-23 00:11:00,
2013-09-22 17:16:00,71.1,40.6,29.90,SW,225,0.0,0.0,33,0.00,,,0.00,WSDL version 430,2013-09-23 00:16:00,
2013-09-22 17:21:00,71.1,40.5,29.90,SW,225,0.0,0.0,33,0.00,,,0.00,WSDL version 430,2013-09-23 00:21:00,
2013-09-22 17:26:00,70.9,40.6,29.90,SW,225,0.0,0.0,34,0.00,,,0.00,WSDL version 430,2013-09-23 00:26:00,
2013-09-22 17:31:00,70.8,40.6,29.89,SW,225,0.0,0.0,33,0.00,,,0.00,WSDL version 430,2013-09-23 00:31:00,
2013-09-22 17:36:00,70.7,41.0,29.89,SW,225,0.0,0.0,34,0.00,,,0.00,WSDL version 430,2013-09-23 00:36:00,
2013-09-22 17:41:00,70.4,40.4,29.89,SW,225,0.0,0.0,33,0.00,,,0.00,WSDL version 430,2013-09-23 00:41:00,
2013-09-22 17:46:00,70.3,40.6,29.89,SW,225,0.0,0.0,34,0.00,,,0.00,WSDL version 430,2013-09-23 00:46:00,
2013-09-22 17:51:00,70.2,39.7,29.89,SW,225,0.0,0.0,33,0.00,,,0.00,WSDL version 430,2013-09-23 00:51:00,
2013-09-22 17:56:00,70.0,39.7,29.90,SW,225,0.0,0.0,33,0.00,,,0.00,WSDL version 430,2013-09-23 00:56:00,
2013-09-22 18:01:00,70.0,40.2,29.90,SW,225,0.0,0.0,34,0.00,,,0.00,WSDL version 430,2013-09-23 01:01:00,
2013-09-22 18:11:00,69.6,40.0,29.90,SW,225,0.0,0.0,34,0.00,,,0.00,WSDL version 430,2013-09-23 01:11:00,
2013-09-22 18:16:00,69.4,39.8,29.90,SW,225,0.0,0.0,34,0.00,,,0.00,WSDL version 430,2013-09-23 01:16:00,
2013-09-22 18:21:00,69.2,39.7,29.90,SW,225,0.0,0.0,34,0.00,,,0.00,WSDL version 430,2013-09-23 01:21:00,
2013-09-22 18:26:00,69.1,39.4,29.90,SW,225,0.0,0.0,34,0.00,,,0.00,WSDL version 430,2013-09-23 01:26:00,
2013-09-22 18:31:00,68.9,39.4,29.90,SW,225,0.0,0.0,34,0.00,,,0.00,WSDL version 430,2013-09-23 01:31:00,
2013-09-22 18:36:00,68.8,39.3,29.90,SW,225,0.0,0.0,34,0.00,,,0.00,WSDL version 430,2013-09-23 01:36:00,
2013-09-22 18:41:00,68.6,39.1,29.90,SW,225,0.0,0.0,34,0.00,,,0.00,WSDL version 430,2013-09-23 01:41:00,
2013-09-22 18:46:00,68.4,39.0,29.90,SW,225,0.0,0.0,34,0.00,,,0.00,WSDL version 430,2013-09-23 01:46:00,
2013-09-22 18:51:00,68.2,38.8,29.90,SW,225,0.0,0.0,34,0.00,,,0.00,WSDL version 430,2013-09-23 01:51:00,
2013-09-22 18:58:00,67.7,39.1,29.90,SW,225,0.0,0.0,35,0.00,,,0.00,WSDL version 430,2013-09-23 01:58:00,
2013-09-22 19:03:00,67.5,39.5,29.90,SW,225,0.0,0.0,36,0.00,,,0.00,WSDL version 430,2013-09-23 02:03:00,
2013-09-22 19:08:00,67.2,39.7,29.90,SW,225,0.0,0.0,37,0.00,,,0.00,WSDL version 430,2013-09-23 02:08:00,
2013-09-22 19:13:00,66.8,39.9,29.90,SW,225,0.0,0.0,38,0.00,,,0.00,WSDL version 430,2013-09-23 02:13:00,
2013-09-22 19:18:00,66.4,40.0,29.90,SW,225,0.0,0.0,38,0.00,,,0.00,WSDL version 430,2013-09-23 02:18:00,
2013-09-22 19:23:00,66.1,40.3,29.90,SW,225,0.0,0.0,40,0.00,,,0.00,WSDL version 430,2013-09-23 02:23:00,
2013-09-22 19:28:00,65.9,40.9,29.90,SW,225,0.0,0.0,40,0.00,,,0.00,WSDL version 430,2013-09-23 02:28:00,
2013-09-22 19:33:00,65.6,40.6,29.90,SW,225,0.0,0.0,40,0.00,,,0.00,WSDL version 430,2013-09-23 02:33:00,
2013-09-22 19:38:00,65.2,41.0,29.90,SW,225,0.0,0.0,41,0.00,,,0.00,WSDL version 430,2013-09-23 02:38:00,
2013-09-22 19:43:00,64.9,40.7,29.90,SW,225,0.0,0.0,41,0.00,,,0.00,WSDL version 430,2013-09-23 02:43:00,
2013-09-22 19:48:00,64.4,40.8,29.90,SW,225,0.0,0.0,42,0.00,,,0.00,WSDL version 430,2013-09-23 02:48:00,
2013-09-22 19:53:00,63.9,41.0,29.90,SW,225,0.0,0.0,43,0.00,,,0.00,WSDL version 430,2013-09-23 02:53:00,
2013-09-22 19:58:00,63.6,40.7,29.90,SW,225,0.0,0.0,43,0.00,,,0.00,WSDL version 430,2013-09-23 02:58:00,
2013-09-22 20:03:00,63.2,40.8,29.91,SW,225,0.0,0.0,44,0.00,,,0.00,WSDL version 430,2013-09-23 03:03:00,
2013-09-22 20:08:00,63.1,40.9,29.91,SW,225,0.0,0.0,44,0.00,,,0.00,WSDL version 430,2013-09-23 03:08:00,
2013-09-22 20:13:00,62.9,40.8,29.91,SW,225,0.0,0.0,45,0.00,,,0.00,WSDL version 430,2013-09-23 03:13:00,
2013-09-22 20:18:00,62.7,41.1,29.91,SW,225,0.0,0.0,45,0.00,,,0.00,WSDL version 430,2013-09-23 03:18:00,
2013-09-22 20:23:00,62.5,41.1,29.91,SW,225,0.0,0.0,46,0.00,,,0.00,WSDL version 430,2013-09-23 03:23:00,
2013-09-22 20:28:00,62.1,41.2,29.91,SW,225,0.0,0.0,47,0.00,,,0.00,WSDL version 430,2013-09-23 03:28:00,
2013-09-22 20:33:00,61.8,41.4,29.91,SW,225,0.0,0.0,47,0.00,,,0.00,WSDL version 430,2013-09-23 03:33:00,
2013-09-22 20:38:00,61.6,41.6,29.91,SW,225,0.0,0.0,48,0.00,,,0.00,WSDL version 430,2013-09-23 03:38:00,
2013-09-22 20:43:00,61.3,41.9,29.92,SW,225,0.0,0.0,49,0.00,,,0.00,WSDL version 430,2013-09-23 03:43:00,
2013-09-22 20:48:00,61.2,42.0,29.92,SW,225,0.0,0.0,50,0.00,,,0.00,WSDL version 430,2013-09-23 03:48:00,
2013-09-22 20:53:00,61.0,42.1,29.92,SW,225,0.0,0.0,50,0.00,,,0.00,WSDL version 430,2013-09-23 03:53:00,
2013-09-22 20:58:00,60.8,42.2,29.92,SW,225,0.0,0.0,51,0.00,,,0.00,WSDL version 430,2013-09-23 03:58:00,
2013-09-22 21:03:00,60.5,42.7,29.92,SW,225,0.0,0.0,52,0.00,,,0.00,WSDL version 430,2013-09-23 04:03:00,
2013-09-22 21:08:00,60.4,43.0,29.92,SW,225,0.0,0.0,53,0.00,,,0.00,WSDL version 430,2013-09-23 04:08:00,
2013-09-22 21:13:00,60.2,43.1,29.92,SW,225,0.0,0.0,53,0.00,,,0.00,WSDL version 430,2013-09-23 04:13:00,
2013-09-22 21:18:00,60.1,43.2,29.92,SW,225,0.0,0.0,54,0.00,,,0.00,WSDL version 430,2013-09-23 04:18:00,
2013-09-22 21:23:00,60.0,43.3,29.93,SW,225,0.0,0.0,54,0.00,,,0.00,WSDL version 430,2013-09-23 04:23:00,
2013-09-22 21:28:00,59.8,43.5,29.93,SW,225,0.0,0.0,55,0.00,,,0.00,WSDL version 430,2013-09-23 04:28:00,
2013-09-22 21:33:00,59.5,43.7,29.93,SW,225,0.0,0.0,56,0.00,,,0.00,WSDL version 430,2013-09-23 04:33:00,
2013-09-22 21:38:00,59.4,43.7,29.93,SW,225,0.0,0.0,56,0.00,,,0.00,WSDL version 430,2013-09-23 04:38:00,
2013-09-22 21:43:00,59.4,44.1,29.93,SW,225,0.0,0.0,57,0.00,,,0.00,WSDL version 430,2013-09-23 04:43:00,
2013-09-22 21:48:00,59.2,44.2,29.93,SW,225,0.0,0.0,58,0.00,,,0.00,WSDL version 430,2013-09-23 04:48:00,
2013-09-22 21:53:00,59.2,44.5,29.93,SW,225,0.0,0.0,59,0.00,,,0.00,WSDL version 430,2013-09-23 04:53:00,
2013-09-22 21:58:00,59.2,45.2,29.93,SW,225,0.0,0.0,61,0.00,,,0.00,WSDL version 430,2013-09-23 04:58:00,
2013-09-22 22:03:00,59.3,46.1,29.93,SW,225,0.0,0.0,62,0.00,,,0.00,WSDL version 430,2013-09-23 05:03:00,
2013-09-22 22:08:00,59.4,46.2,29.93,SW,225,0.0,0.0,62,0.00,,,0.00,WSDL version 430,2013-09-23 05:08:00,
2013-09-22 22:13:00,59.4,46.8,29.93,SW,225,0.0,0.0,63,0.00,,,0.00,WSDL version 430,2013-09-23 05:13:00,
2013-09-22 22:18:00,59.4,46.4,29.93,SW,225,0.0,0.0,62,0.00,,,0.00,WSDL version 430,2013-09-23 05:18:00,
2013-09-22 22:23:00,59.4,46.4,29.93,SW,225,0.0,0.0,62,0.00,,,0.00,WSDL version 430,2013-09-23 05:23:00,
2013-09-22 22:28:00,59.3,46.0,29.93,SW,225,0.0,0.0,61,0.00,,,0.00,WSDL version 430,2013-09-23 05:28:00,
2013-09-22 22:33:00,59.2,45.7,29.93,SW,225,0.0,0.0,61,0.00,,,0.00,WSDL version 430,2013-09-23 05:33:00,
2013-09-22 22:38:00,59.0,46.0,29.93,SW,225,0.0,0.0,62,0.00,,,0.00,WSDL version 430,2013-09-23 05:38:00,
2013-09-22 22:43:00,58.8,45.8,29.93,SW,225,0.0,0.0,62,0.00,,,0.00,WSDL version 430,2013-09-23 05:43:00,
2013-09-22 22:48:00,58.5,45.7,29.93,SW,225,0.0,0.0,63,0.00,,,0.00,WSDL version 430,2013-09-23 05:48:00,
2013-09-22 22:53:00,58.2,45.7,29.93,SW,225,0.0,0.0,63,0.00,,,0.00,WSDL version 430,2013-09-23 05:53:00,
2013-09-22 22:58:00,58.0,45.5,29.93,SW,225,0.0,0.0,63,0.00,,,0.00,WSDL version 430,2013-09-23 05:58:00,
2013-09-22 23:03:00,58.0,46.1,29.93,SW,225,0.0,0.0,66,0.00,,,0.00,WSDL version 430,2013-09-23 06:03:00,
2013-09-22 23:08:00,58.1,46.9,29.93,SW,225,0.0,0.0,66,0.00,,,0.00,WSDL version 430,2013-09-23 06:08:00,
2013-09-22 23:13:00,58.0,46.7,29.93,SW,225,0.0,0.0,65,0.00,,,0.00,WSDL version 430,2013-09-23 06:13:00,
2013-09-22 23:18:00,57.8,46.3,29.93,SW,225,0.0,0.0,65,0.00,,,0.00,WSDL version 430,2013-09-23 06:18:00,
2013-09-22 23:23:00,57.6,46.1,29.93,SW,225,0.0,0.0,65,0.00,,,0.00,WSDL version 430,2013-09-23 06:23:00,
2013-09-22 23:28:00,57.4,46.1,29.93,SW,225,0.0,0.0,66,0.00,,,0.00,WSDL version 430,2013-09-23 06:28:00,
2013-09-22 23:33:00,57.3,46.0,29.93,SW,225,0.0,0.0,66,0.00,,,0.00,WSDL version 430,2013-09-23 06:33:00,
2013-09-22 23:38:00,57.2,46.0,29.93,SW,225,0.0,0.0,66,0.00,,,0.00,WSDL version 430,2013-09-23 06:38:00,
2013-09-22 23:43:00,57.2,46.3,29.93,SW,225,0.0,0.0,67,0.00,,,0.00,WSDL version 430,2013-09-23 06:43:00,
2013-09-22 23:48:00,56.9,46.1,29.93,SW,225,0.0,0.0,67,0.00,,,0.00,WSDL version 430,2013-09-23 06:48:00,
2013-09-22 23:53:00,56.8,46.0,29.93,SW,225,0.0,0.0,67,0.00,,,0.00,WSDL version 430,2013-09-23 06:53:00,
2013-09-22 23:58:00,56.8,46.3,29.93,SW,225,0.0,0.0,68,0.00,,,0.00,WSDL version 430,2013-09-23 06:58:00,